createdAt,value
2023-04-27T00:01:57.969Z,93840.00
2023-04-27T00:04:25.219Z,93846.44
2023-04-27T00:06:52.274Z,93845.63
2023-04-27T00:09:19.068Z,93836.69
2023-04-27T00:11:45.410Z,93837.31
2023-04-27T00:14:11.700Z,93828.19
2023-04-27T00:16:38.043Z,93828.81
2023-04-27T00:19:04.398Z,93831.06
2023-04-27T00:21:31.944Z,93842.06
2023-04-27T00:23:58.260Z,93840.72
2023-04-27T00:26:24.607Z,93830.16
2023-04-27T00:28:51.592Z,93833.66
2023-04-27T00:31:17.994Z,93831.22
2023-04-27T00:33:44.313Z,93831.94
2023-04-27T00:36:10.652Z,93834.34
2023-04-27T00:38:37.069Z,93817.88
2023-04-27T00:41:03.752Z,93825.09
2023-04-27T00:43:30.242Z,93829.06
2023-04-27T00:46:10.201Z,93829.97
2023-04-27T00:48:37.127Z,93825.09
2023-04-27T00:51:03.448Z,93824.50
2023-04-27T00:53:30.892Z,93827.00
2023-04-27T00:55:58.599Z,93827.00
2023-04-27T00:58:25.974Z,93818.03
2023-04-27T01:00:52.419Z,93819.47
2023-04-27T01:03:19.066Z,93828.34
2023-04-27T01:05:45.585Z,93831.94
2023-04-27T01:08:11.893Z,93824.59
2023-04-27T01:10:38.677Z,93819.03
2023-04-27T01:13:05.054Z,93817.41
2023-04-27T01:15:31.363Z,93821.19
2023-04-27T01:18:01.390Z,93821.34
2023-04-27T01:20:30.190Z,93814.56
2023-04-27T01:22:57.126Z,93824.41
2023-04-27T01:25:23.458Z,93815.44
2023-04-27T01:27:49.751Z,93826.38
2023-04-27T01:30:16.170Z,93824.41
2023-04-27T01:32:42.642Z,93821.19
2023-04-27T01:35:09.209Z,93832.66
2023-04-27T01:37:35.795Z,93834.53
2023-04-27T01:40:02.129Z,93833.13
2023-04-27T01:42:28.483Z,93839.63
2023-04-27T01:44:54.785Z,93840.44
2023-04-27T01:47:21.219Z,93842.78
2023-04-27T01:49:47.502Z,93848.25
2023-04-27T01:52:13.784Z,93853.66
2023-04-27T01:54:40.072Z,93842.84
2023-04-27T01:57:06.374Z,93841.44
2023-04-27T01:59:32.657Z,93852.19
2023-04-27T02:01:59.036Z,93855.25
2023-04-27T02:04:25.862Z,93854.59
2023-04-27T02:07:02.458Z,93858.75
2023-04-27T02:09:28.756Z,93867.63
2023-04-27T02:11:55.080Z,93857.19
2023-04-27T02:14:21.514Z,93860.91
2023-04-27T02:16:47.887Z,93869.16
2023-04-27T02:19:16.618Z,93874.34
2023-04-27T02:21:43.182Z,93877.66
2023-04-27T02:24:09.888Z,93869.25
2023-04-27T02:26:36.186Z,93855.78
2023-04-27T02:29:03.724Z,93860.44
2023-04-27T02:31:30.963Z,93867.63
2023-04-27T02:33:57.296Z,93866.69
2023-04-27T02:36:23.584Z,93869.59
2023-04-27T02:38:49.920Z,93870.19
2023-04-27T02:41:16.198Z,93866.56
2023-04-27T02:43:42.532Z,93868.16
2023-04-27T02:46:08.869Z,93872.38
2023-04-27T02:48:35.379Z,93874.97
2023-04-27T02:51:04.939Z,93874.72
2023-04-27T02:53:31.453Z,93870.84
2023-04-27T02:55:58.497Z,93878.78
2023-04-27T02:58:25.024Z,93857.34
2023-04-27T03:00:57.647Z,93868.66
2023-04-27T03:03:24.681Z,93861.47
2023-04-27T03:05:51.149Z,93876.31
2023-04-27T03:08:17.479Z,93865.47
2023-04-27T03:10:43.797Z,93873.00
2023-04-27T03:13:10.101Z,93865.56
2023-04-27T03:15:36.424Z,93856.69
2023-04-27T03:18:02.793Z,93856.94
2023-04-27T03:20:29.125Z,93864.56
2023-04-27T03:22:55.553Z,93862.03
2023-04-27T03:25:22.337Z,93858.63
2023-04-27T03:27:48.665Z,93869.78
2023-04-27T03:30:15.119Z,93871.91
2023-04-27T03:32:41.459Z,93865.09
2023-04-27T03:35:08.139Z,93868.50
2023-04-27T03:37:34.453Z,93870.47
2023-04-27T03:40:00.972Z,93878.00
2023-04-27T03:42:27.292Z,93877.06
2023-04-27T03:44:53.728Z,93876.72
2023-04-27T03:47:20.125Z,93878.69
2023-04-27T03:49:46.666Z,93885.50
2023-04-27T03:52:12.961Z,93882.28
2023-04-27T03:54:41.272Z,93878.09
2023-04-27T03:57:07.601Z,93888.59
2023-04-27T03:59:39.106Z,93888.00
2023-04-27T04:02:05.768Z,93893.22
2023-04-27T04:04:32.325Z,93899.78
2023-04-27T04:06:58.749Z,93895.28
2023-04-27T04:09:25.069Z,93904.28
2023-04-27T04:11:51.951Z,93902.94
2023-04-27T04:14:18.273Z,93896.66
2023-04-27T04:16:44.580Z,93904.72
2023-04-27T04:19:10.892Z,93903.94
2023-04-27T04:21:37.238Z,93901.50
2023-04-27T04:24:04.714Z,93897.75
2023-04-27T04:26:31.042Z,93898.47
2023-04-27T04:28:57.370Z,93896.47
2023-04-27T04:31:23.796Z,93891.28
2023-04-27T04:33:55.142Z,93894.84
2023-04-27T04:36:21.520Z,93899.34
2023-04-27T04:38:47.832Z,93897.00
2023-04-27T04:41:25.582Z,93902.59
2023-04-27T04:43:57.027Z,93903.84
2023-04-27T04:46:47.507Z,93901.41
2023-04-27T04:49:14.103Z,93907.06
2023-04-27T04:51:44.317Z,93911.91
2023-04-27T04:54:11.532Z,93912.63
2023-04-27T04:56:37.885Z,93916.72
2023-04-27T04:59:07.279Z,93911.91
2023-04-27T05:01:36.940Z,93913.59
2023-04-27T05:04:04.660Z,93910.38
2023-04-27T05:06:31.752Z,93905.25
2023-04-27T05:09:02.193Z,93916.91
2023-04-27T05:11:29.543Z,93918.63
2023-04-27T05:13:55.948Z,93916.44
2023-04-27T05:16:22.356Z,93921.38
2023-04-27T05:18:48.745Z,93923.00
2023-04-27T05:21:15.937Z,93915.81
2023-04-27T05:23:42.250Z,93918.41
2023-04-27T05:26:12.632Z,93922.28
2023-04-27T05:28:38.914Z,93921.00
2023-04-27T05:31:05.404Z,93921.09
2023-04-27T05:33:31.859Z,93925.13
2023-04-27T05:35:58.153Z,93926.22
2023-04-27T05:38:24.447Z,93920.91
2023-04-27T05:40:55.605Z,93928.34
2023-04-27T05:43:22.164Z,93913.47
2023-04-27T05:45:48.568Z,93913.09
2023-04-27T05:48:14.943Z,93912.00
2023-04-27T05:50:41.337Z,93914.56
2023-04-27T05:53:07.662Z,93913.41
2023-04-27T05:55:34.082Z,93916.63
2023-04-27T05:58:08.967Z,93912.72
2023-04-27T06:00:36.565Z,93918.25
2023-04-27T06:03:03.022Z,93918.59
2023-04-27T06:05:29.479Z,93910.72
2023-04-27T06:07:55.836Z,93913.81
2023-04-27T06:10:22.184Z,93913.53
2023-04-27T06:12:48.471Z,93914.28
2023-04-27T06:15:14.813Z,93924.22
2023-04-27T06:17:41.254Z,93916.88
2023-04-27T06:20:08.341Z,93914.19
2023-04-27T06:22:35.002Z,93918.59
2023-04-27T06:25:01.322Z,93922.66
2023-04-27T06:27:27.653Z,93925.75
2023-04-27T06:29:53.957Z,93934.44
2023-04-27T06:32:20.715Z,93922.13
2023-04-27T06:34:47.296Z,93922.16
2023-04-27T06:37:15.464Z,93936.47
2023-04-27T06:39:41.953Z,93931.31
2023-04-27T06:42:08.256Z,93933.47
2023-04-27T06:44:34.574Z,93926.25
2023-04-27T06:47:00.896Z,93932.88
2023-04-27T06:49:27.204Z,93933.31
2023-04-27T06:51:53.501Z,93932.25
2023-04-27T06:54:19.811Z,93933.34
2023-04-27T06:56:46.424Z,93938.44
2023-04-27T06:59:13.947Z,93936.50
2023-04-27T07:01:40.413Z,93933.72
2023-04-27T07:04:07.168Z,93941.34
2023-04-27T07:06:33.588Z,93940.16
2023-04-27T07:09:00.055Z,93949.41
2023-04-27T07:11:26.425Z,93945.78
2023-04-27T07:13:52.731Z,93945.41
2023-04-27T07:16:19.096Z,93952.47
2023-04-27T07:18:45.538Z,93950.50
2023-04-27T07:21:11.973Z,93949.44
2023-04-27T07:23:39.650Z,93949.03
2023-04-27T07:26:07.651Z,93945.41
2023-04-27T07:28:35.581Z,93945.78
2023-04-27T07:31:04.410Z,93948.63
2023-04-27T07:33:30.932Z,93950.41
2023-04-27T07:35:57.446Z,93958.97
2023-04-27T07:38:31.230Z,93956.63
2023-04-27T07:41:01.716Z,93954.56
2023-04-27T07:43:28.255Z,93960.59
2023-04-27T07:45:55.548Z,93953.38
2023-04-27T07:48:22.853Z,93952.44
2023-04-27T07:51:01.616Z,93954.94
2023-04-27T07:53:27.971Z,93952.78
2023-04-27T07:55:54.297Z,93955.66
2023-04-27T07:58:20.615Z,93956.84
2023-04-27T08:00:47.296Z,93967.38
2023-04-27T08:03:13.802Z,93959.53
2023-04-27T08:05:40.414Z,93960.19
2023-04-27T08:08:07.115Z,93961.97
2023-04-27T08:10:33.631Z,93964.63
2023-04-27T08:12:59.986Z,93960.41
2023-04-27T08:15:26.389Z,93935.19
2023-04-27T08:17:52.739Z,93961.63
2023-04-27T08:20:19.171Z,93967.22
2023-04-27T08:22:45.632Z,93953.94
2023-04-27T08:25:11.931Z,93963.25
2023-04-27T08:27:38.978Z,93960.28
2023-04-27T08:30:05.974Z,93959.00
2023-04-27T08:32:32.323Z,93958.22
2023-04-27T08:35:01.689Z,93959.41
2023-04-27T08:37:28.004Z,93951.00
2023-04-27T08:39:54.333Z,93958.41
2023-04-27T08:42:20.724Z,93953.28
2023-04-27T08:44:47.070Z,93955.16
2023-04-27T08:47:13.471Z,93950.38
2023-04-27T08:49:41.547Z,93957.75
2023-04-27T08:52:12.640Z,93952.50
2023-04-27T08:54:39.000Z,93952.50
2023-04-27T08:57:09.011Z,93951.47
2023-04-27T08:59:46.421Z,93939.91
2023-04-27T09:02:21.925Z,93947.94
2023-04-27T09:04:48.525Z,93941.06
2023-04-27T09:07:15.842Z,93940.91
2023-04-27T09:09:42.627Z,93936.50
2023-04-27T09:12:15.597Z,93944.41
2023-04-27T09:14:42.815Z,93940.63
2023-04-27T09:17:09.219Z,93929.38
2023-04-27T09:19:35.727Z,93934.06
2023-04-27T09:22:05.420Z,93930.84
2023-04-27T09:24:31.757Z,93935.09
2023-04-27T09:27:00.173Z,93938.66
2023-04-27T09:29:34.532Z,93935.22
2023-04-27T09:32:00.921Z,93935.53
2023-04-27T09:34:43.719Z,93934.66
2023-04-27T09:37:10.179Z,93945.41
2023-04-27T09:39:36.671Z,93937.22
2023-04-27T09:42:04.408Z,93937.56
2023-04-27T09:44:31.593Z,93939.13
2023-04-27T09:46:58.646Z,93939.47
2023-04-27T09:49:26.057Z,93930.59
2023-04-27T09:51:54.399Z,93936.09
2023-04-27T09:54:22.493Z,93933.31
2023-04-27T09:56:58.114Z,93934.16
2023-04-27T09:59:44.662Z,93934.91
2023-04-27T10:02:24.079Z,93930.34
2023-04-27T10:05:01.211Z,93928.78
2023-04-27T10:07:27.878Z,93922.75
2023-04-27T10:09:54.270Z,93916.97
2023-04-27T10:12:23.585Z,93926.91
2023-04-27T10:14:57.239Z,93920.34
2023-04-27T10:17:31.225Z,93924.00
2023-04-27T10:19:59.111Z,93929.53
2023-04-27T10:22:37.524Z,93928.84
2023-04-27T10:25:12.541Z,93923.81
2023-04-27T10:27:39.414Z,93928.00
2023-04-27T10:30:10.090Z,93929.84
2023-04-27T10:32:36.513Z,93934.69
2023-04-27T10:35:05.373Z,93930.78
2023-04-27T10:37:38.916Z,93927.31
2023-04-27T10:40:07.777Z,93928.38
2023-04-27T10:42:34.201Z,93928.38
2023-04-27T10:45:00.525Z,93927.94
2023-04-27T10:47:36.774Z,93922.47
2023-04-27T10:50:04.236Z,93928.56
2023-04-27T10:52:30.567Z,93921.66
2023-04-27T10:54:56.902Z,93918.16
2023-04-27T10:57:23.359Z,93913.00
2023-04-27T10:59:50.861Z,93916.06
2023-04-27T11:02:17.426Z,93919.97
2023-04-27T11:04:43.862Z,93920.59
2023-04-27T11:07:10.895Z,93916.81
2023-04-27T11:09:38.023Z,93910.97
2023-04-27T11:12:07.965Z,93917.41
2023-04-27T11:14:35.420Z,93915.38
2023-04-27T11:17:01.782Z,93922.88
2023-04-27T11:19:30.756Z,93925.97
2023-04-27T11:22:06.915Z,93929.78
2023-04-27T11:24:33.780Z,93929.22
2023-04-27T11:27:00.319Z,93929.66
2023-04-27T11:29:26.820Z,93923.59
2023-04-27T11:31:53.405Z,93928.59
2023-04-27T11:34:23.654Z,93923.31
2023-04-27T11:37:16.658Z,93918.81
2023-04-27T11:39:44.903Z,93926.38
2023-04-27T11:42:18.410Z,93929.56
2023-04-27T11:44:54.248Z,93926.00
2023-04-27T11:47:22.362Z,93933.56
2023-04-27T11:49:49.529Z,93931.44
2023-04-27T11:52:16.206Z,93922.31
2023-04-27T11:54:49.677Z,93928.38
2023-04-27T11:57:16.483Z,93927.84
2023-04-27T11:59:42.878Z,93935.03
2023-04-27T12:02:09.868Z,93934.91
2023-04-27T12:04:36.581Z,93935.44
2023-04-27T12:07:05.149Z,93933.28
2023-04-27T12:09:31.599Z,93937.91
2023-04-27T12:11:57.944Z,93929.47
2023-04-27T12:14:24.783Z,93927.59
2023-04-27T12:16:51.697Z,93926.59
2023-04-27T12:19:18.179Z,93921.53
2023-04-27T12:21:45.103Z,93918.44
2023-04-27T12:24:11.897Z,93916.00
2023-04-27T12:26:39.737Z,93918.22
2023-04-27T12:29:06.149Z,93916.84
2023-04-27T12:31:44.785Z,93916.00
2023-04-27T12:34:13.391Z,93923.69
2023-04-27T12:36:39.917Z,93917.06
2023-04-27T12:39:14.814Z,93916.38
2023-04-27T12:41:45.177Z,93916.81
2023-04-27T12:44:15.124Z,93912.34
2023-04-27T12:46:50.576Z,93907.59
2023-04-27T12:49:17.219Z,93914.22
2023-04-27T12:51:44.050Z,93906.88
2023-04-27T12:54:11.062Z,93910.88
2023-04-27T12:56:43.500Z,93904.88
2023-04-27T12:59:09.830Z,93905.47
2023-04-27T13:01:36.636Z,93905.13
2023-04-27T13:04:04.051Z,93905.38
2023-04-27T13:06:53.514Z,93908.13
2023-04-27T13:09:19.880Z,93900.19
2023-04-27T13:11:46.226Z,93898.06
2023-04-27T13:14:17.680Z,93893.03
2023-04-27T13:16:49.834Z,93891.63
2023-04-27T13:19:16.238Z,93887.44
2023-04-27T13:21:46.660Z,93889.66
2023-04-27T13:24:25.236Z,93878.19
2023-04-27T13:26:53.665Z,93891.63
2023-04-27T13:29:25.128Z,93890.28
2023-04-27T13:31:51.618Z,93879.38
2023-04-27T13:34:25.640Z,93881.97
2023-04-27T13:36:52.301Z,93876.66
2023-04-27T13:39:26.830Z,93866.31
2023-04-27T13:41:56.492Z,93867.50
2023-04-27T13:45:03.925Z,93875.34
2023-04-27T13:47:36.719Z,93872.44
2023-04-27T13:50:04.320Z,93870.38
2023-04-27T13:52:30.759Z,93867.66
2023-04-27T13:54:57.257Z,93873.38
2023-04-27T13:57:23.643Z,93857.94
2023-04-27T13:59:49.968Z,93861.44
2023-04-27T14:02:16.322Z,93861.44
2023-04-27T14:04:42.727Z,93854.91
2023-04-27T14:07:12.197Z,93850.88
2023-04-27T14:09:38.506Z,93858.22
2023-04-27T14:12:04.974Z,93859.59
2023-04-27T14:14:31.390Z,93857.13
2023-04-27T14:16:57.874Z,93858.94
2023-04-27T14:19:24.275Z,93856.53
2023-04-27T14:21:50.728Z,93849.44
2023-04-27T14:24:17.276Z,93851.84
2023-04-27T14:26:55.965Z,93848.22
2023-04-27T14:29:22.418Z,93845.84
2023-04-27T14:31:48.760Z,93849.66
2023-04-27T14:34:36.829Z,93849.44
2023-04-27T14:37:04.182Z,93836.63
2023-04-27T14:39:31.590Z,93841.31
2023-04-27T14:41:57.891Z,93836.50
2023-04-27T14:44:24.225Z,93849.47
2023-04-27T14:46:51.613Z,93845.94
2023-04-27T14:49:19.633Z,93842.91
2023-04-27T14:51:45.933Z,93840.53
2023-04-27T14:54:19.463Z,93847.16
2023-04-27T14:56:46.964Z,93842.25
2023-04-27T14:59:14.467Z,93838.88
2023-04-27T15:01:40.940Z,93839.06
2023-04-27T15:04:11.950Z,93843.78
2023-04-27T15:06:44.109Z,93834.25
2023-04-27T15:09:11.787Z,93843.34
2023-04-27T15:11:41.544Z,93834.88
2023-04-27T15:14:16.565Z,93841.72
2023-04-27T15:16:51.629Z,93841.94
2023-04-27T15:19:23.048Z,93847.66
2023-04-27T15:21:49.696Z,93853.88
2023-04-27T15:24:21.829Z,93856.16
2023-04-27T15:26:51.281Z,93854.06
2023-04-27T15:29:18.748Z,93854.81
2023-04-27T15:31:46.963Z,93852.44
2023-04-27T15:34:13.518Z,93846.88
2023-04-27T15:36:39.920Z,93846.06
2023-04-27T15:39:09.876Z,93841.94
2023-04-27T15:41:36.697Z,93837.63
2023-04-27T15:44:04.815Z,93847.56
2023-04-27T15:46:32.438Z,93843.56
2023-04-27T15:48:59.823Z,93836.44
2023-04-27T15:51:35.580Z,93832.81
2023-04-27T15:54:02.031Z,93841.56
2023-04-27T15:56:31.970Z,93838.41
2023-04-27T15:59:03.889Z,93833.31
2023-04-27T16:01:34.409Z,93830.28
2023-04-27T16:04:16.995Z,93831.38
2023-04-27T16:06:55.918Z,93828.53
2023-04-27T16:09:34.590Z,93825.31
2023-04-27T16:12:11.061Z,93823.53
2023-04-27T16:14:38.394Z,93810.13
2023-04-27T16:17:04.695Z,93815.16
2023-04-27T16:19:31.181Z,93812.84
2023-04-27T16:21:57.524Z,93816.97
2023-04-27T16:24:33.954Z,93807.41
2023-04-27T16:27:00.401Z,93812.97
2023-04-27T16:29:36.590Z,93810.41
2023-04-27T16:32:03.031Z,93802.22
2023-04-27T16:34:38.641Z,93804.41
2023-04-27T16:37:05.628Z,93791.78
2023-04-27T16:39:32.691Z,93801.75
2023-04-27T16:41:59.026Z,93797.28
2023-04-27T16:44:26.146Z,93804.94
2023-04-27T16:46:52.511Z,93804.84
2023-04-27T16:49:22.104Z,93810.13
2023-04-27T16:51:48.492Z,93802.59
2023-04-27T16:54:17.982Z,93809.78
2023-04-27T16:56:45.715Z,93808.19
2023-04-27T16:59:12.482Z,93812.41
2023-04-27T17:01:39.181Z,93816.31
2023-04-27T17:04:05.838Z,93825.94
2023-04-27T17:06:40.095Z,93820.63
2023-04-27T17:09:06.733Z,93822.06
2023-04-27T17:11:38.897Z,93816.94
2023-04-27T17:14:05.346Z,93814.97
2023-04-27T17:16:44.875Z,93812.47
2023-04-27T17:19:20.529Z,93811.88
2023-04-27T17:21:46.863Z,93813.94
2023-04-27T17:24:18.317Z,93819.38
2023-04-27T17:26:45.753Z,93824.00
2023-04-27T17:29:12.161Z,93824.47
2023-04-27T17:31:40.722Z,93825.06
2023-04-27T17:34:07.180Z,93832.91
2023-04-27T17:36:33.472Z,93826.09
2023-04-27T17:39:01.295Z,93844.78
2023-04-27T17:41:29.637Z,93847.44
2023-04-27T17:43:55.984Z,93840.69
2023-04-27T17:46:22.388Z,93837.59
2023-04-27T17:48:48.766Z,93846.53
2023-04-27T17:51:15.709Z,93837.38
2023-04-27T17:53:42.094Z,93854.44
2023-04-27T17:56:08.421Z,93848.66
2023-04-27T17:58:34.802Z,93853.34
2023-04-27T18:01:03.253Z,93845.28
2023-04-27T18:03:31.759Z,93837.91
2023-04-27T18:06:02.293Z,93846.06
2023-04-27T18:08:28.728Z,93847.91
2023-04-27T18:10:55.047Z,93850.56
2023-04-27T18:13:21.414Z,93849.50
2023-04-27T18:15:47.721Z,93853.44
2023-04-27T18:18:18.960Z,93851.66
2023-04-27T18:20:47.544Z,93853.97
2023-04-27T18:23:14.362Z,93856.09
2023-04-27T18:25:40.899Z,93852.53
2023-04-27T18:28:08.858Z,93857.69
2023-04-27T18:30:50.626Z,93862.47
2023-04-27T18:33:22.671Z,93865.84
2023-04-27T18:35:49.065Z,93870.78
2023-04-27T18:38:15.568Z,93866.78
2023-04-27T18:40:41.954Z,93868.91
2023-04-27T18:43:17.474Z,93873.75
2023-04-27T18:45:43.801Z,93885.44
2023-04-27T18:48:11.372Z,93886.69
2023-04-27T18:50:42.182Z,93881.47
2023-04-27T18:53:21.182Z,93885.06
2023-04-27T18:55:56.530Z,93885.44
2023-04-27T18:58:38.135Z,93887.06
2023-04-27T19:01:08.784Z,93890.88
2023-04-27T19:03:41.451Z,93879.41
2023-04-27T19:06:08.937Z,93878.59
2023-04-27T19:08:43.404Z,93889.38
2023-04-27T19:11:09.964Z,93895.34
2023-04-27T19:13:37.877Z,93892.91
2023-04-27T19:16:18.053Z,93892.09
2023-04-27T19:19:09.356Z,93881.25
2023-04-27T19:21:39.111Z,93894.47
2023-04-27T19:24:24.170Z,93890.09
2023-04-27T19:26:50.658Z,93893.25
2023-04-27T19:29:18.451Z,93888.06
2023-04-27T19:31:47.891Z,93897.25
2023-04-27T19:34:18.446Z,93887.78
2023-04-27T19:36:49.879Z,93889.50
2023-04-27T19:39:17.283Z,93891.06
2023-04-27T19:41:43.703Z,93884.97
2023-04-27T19:44:10.041Z,93885.78
2023-04-27T19:46:36.397Z,93885.25
2023-04-27T19:49:02.721Z,93888.28
2023-04-27T19:51:42.320Z,93886.69
2023-04-27T19:54:10.698Z,93890.44
2023-04-27T19:56:37.003Z,93892.16
2023-04-27T19:59:03.310Z,93891.56
2023-04-27T20:01:31.771Z,93898.16
2023-04-27T20:04:00.271Z,93899.13
2023-04-27T20:06:26.751Z,93894.69
2023-04-27T20:08:57.157Z,93893.03
2023-04-27T20:11:23.524Z,93890.31
2023-04-27T20:13:56.905Z,93892.00
2023-04-27T20:16:25.689Z,93888.91
2023-04-27T20:18:52.164Z,93884.13
2023-04-27T20:21:18.640Z,93880.13
2023-04-27T20:23:47.556Z,93879.94
2023-04-27T20:26:14.915Z,93874.75
2023-04-27T20:28:41.362Z,93869.16
2023-04-27T20:31:12.577Z,93864.50
2023-04-27T20:33:38.932Z,93866.72
2023-04-27T20:36:16.178Z,93866.72
2023-04-27T20:38:47.413Z,93878.13
2023-04-27T20:41:14.381Z,93871.31
2023-04-27T20:43:40.743Z,93872.94
2023-04-27T20:46:07.434Z,93862.38
2023-04-27T20:48:34.029Z,93866.06
2023-04-27T20:51:03.664Z,93862.19
2023-04-27T20:53:30.285Z,93855.41
2023-04-27T20:56:12.498Z,93857.00
2023-04-27T20:58:38.806Z,93859.59
2023-04-27T21:01:05.183Z,93858.25
2023-04-27T21:03:31.629Z,93849.06
2023-04-27T21:05:58.085Z,93852.31
2023-04-27T21:08:24.402Z,93846.41
2023-04-27T21:10:50.947Z,93838.59
2023-04-27T21:13:17.369Z,93840.34
2023-04-27T21:15:43.674Z,93837.50
2023-04-27T21:18:16.266Z,93839.84
2023-04-27T21:20:50.426Z,93839.59
2023-04-27T21:23:16.938Z,93842.63
2023-04-27T21:25:44.310Z,93837.88
2023-04-27T21:28:10.908Z,93840.84
2023-04-27T21:30:37.371Z,93842.56
2023-04-27T21:33:03.971Z,93846.53
2023-04-27T21:35:31.055Z,93840.25
2023-04-27T21:38:01.771Z,93831.41
2023-04-27T21:40:28.137Z,93826.38
2023-04-27T21:42:54.501Z,93828.44
2023-04-27T21:45:21.000Z,93822.84
2023-04-27T21:47:47.816Z,93819.25
2023-04-27T21:50:16.380Z,93819.25
2023-04-27T21:52:42.751Z,93821.47
2023-04-27T21:55:10.091Z,93830.28
2023-04-27T21:57:36.736Z,93830.91
2023-04-27T22:00:08.679Z,93830.38
2023-04-27T22:02:35.132Z,93826.31
2023-04-27T22:05:02.453Z,93828.66
2023-04-27T22:07:28.940Z,93826.53
2023-04-27T22:09:55.318Z,93818.81
2023-04-27T22:12:21.633Z,93828.69
2023-04-27T22:14:47.923Z,93824.94
2023-04-27T22:17:14.260Z,93829.59
2023-04-27T22:19:41.417Z,93829.59
2023-04-27T22:22:08.343Z,93833.56
2023-04-27T22:24:34.677Z,93827.09
2023-04-27T22:27:01.957Z,93831.06
2023-04-27T22:29:28.292Z,93819.38
2023-04-27T22:31:55.205Z,93817.41
2023-04-27T22:34:21.671Z,93818.16
2023-04-27T22:36:48.151Z,93820.91
2023-04-27T22:39:14.572Z,93809.34
2023-04-27T22:41:41.269Z,93805.78
2023-04-27T22:44:07.569Z,93806.38
2023-04-27T22:46:34.039Z,93813.03
2023-04-27T22:49:01.442Z,93816.69
2023-04-27T22:51:27.770Z,93815.09
2023-04-27T22:53:54.356Z,93811.50
2023-04-27T22:56:21.075Z,93814.34
2023-04-27T22:58:47.433Z,93804.88
2023-04-27T23:01:13.846Z,93802.88
2023-04-27T23:03:40.231Z,93801.25
2023-04-27T23:06:07.332Z,93800.91
2023-04-27T23:08:33.634Z,93793.56
2023-04-27T23:10:59.958Z,93794.97
2023-04-27T23:13:29.264Z,93794.97
2023-04-27T23:15:55.792Z,93798.59
2023-04-27T23:18:22.203Z,93797.31
2023-04-27T23:20:52.333Z,93792.63
2023-04-27T23:23:18.626Z,93793.91
2023-04-27T23:25:44.926Z,93791.19
2023-04-27T23:28:11.522Z,93789.56
2023-04-27T23:30:37.884Z,93786.78
2023-04-27T23:33:04.250Z,93782.47
2023-04-27T23:35:31.610Z,93793.69
2023-04-27T23:37:58.451Z,93790.09
2023-04-27T23:40:24.765Z,93788.47
2023-04-27T23:42:51.769Z,93784.16
2023-04-27T23:45:18.306Z,93782.63
2023-04-27T23:47:44.664Z,93782.69
2023-04-27T23:50:11.069Z,93783.94
2023-04-27T23:52:37.399Z,93778.81
2023-04-27T23:55:03.817Z,93775.63
2023-04-27T23:57:30.168Z,93780.44
2023-04-27T23:59:56.507Z,93776.50
